createdAt,value
2019-05-19T00:00:33.006Z,15.00
2019-05-19T00:03:02.562Z,15.00
2019-05-19T00:05:32.201Z,15.00
2019-05-19T00:08:02.062Z,14.90
2019-05-19T00:10:31.952Z,14.80
2019-05-19T00:13:01.505Z,14.80
2019-05-19T00:15:31.124Z,14.80
2019-05-19T00:18:00.840Z,14.80
2019-05-19T00:20:30.487Z,14.80
2019-05-19T00:23:00.392Z,14.90
2019-05-19T00:25:30.641Z,14.70
2019-05-19T00:28:00.621Z,14.70
2019-05-19T00:30:30.437Z,14.70
2019-05-19T00:33:00.241Z,14.70
2019-05-19T00:35:29.831Z,14.70
2019-05-19T00:37:59.460Z,14.70
2019-05-19T00:40:28.995Z,14.70
2019-05-19T00:42:58.864Z,14.70
2019-05-19T00:45:28.564Z,14.70
2019-05-19T00:47:58.493Z,14.70
2019-05-19T00:50:28.239Z,14.70
2019-05-19T00:52:58.453Z,14.60
2019-05-19T00:55:29.402Z,14.50
2019-05-19T00:58:01.003Z,14.40
2019-05-19T01:00:30.692Z,14.40
2019-05-19T01:03:00.349Z,14.40
2019-05-19T01:05:29.885Z,14.30
2019-05-19T01:08:00.062Z,14.30
2019-05-19T01:10:30.177Z,14.30
2019-05-19T01:13:00.049Z,14.30
2019-05-19T01:15:30.046Z,14.20
2019-05-19T01:17:59.673Z,14.20
2019-05-19T01:20:29.622Z,14.10
2019-05-19T01:22:59.274Z,14.10
2019-05-19T01:25:28.834Z,14.00
2019-05-19T01:27:58.414Z,13.90
2019-05-19T01:30:28.067Z,13.90
2019-05-19T01:32:57.673Z,13.90
2019-05-19T01:35:27.699Z,13.80
2019-05-19T01:37:58.407Z,13.80
2019-05-19T01:40:28.048Z,13.90
2019-05-19T01:42:58.444Z,13.80
2019-05-19T01:45:28.065Z,13.80
2019-05-19T01:47:57.616Z,13.80
2019-05-19T01:50:27.246Z,13.80
2019-05-19T01:52:56.785Z,13.70
2019-05-19T01:55:26.360Z,13.70
2019-05-19T01:57:55.961Z,13.70
2019-05-19T02:00:25.685Z,13.70
2019-05-19T02:02:55.257Z,13.70
2019-05-19T02:05:24.817Z,13.70
2019-05-19T02:07:54.700Z,13.70
2019-05-19T02:10:24.613Z,13.70
2019-05-19T02:12:54.152Z,13.60
2019-05-19T02:15:24.056Z,13.60
2019-05-19T02:18:05.509Z,13.60
2019-05-19T02:20:35.049Z,13.60
2019-05-19T02:23:04.933Z,13.60
2019-05-19T02:25:35.414Z,13.60
2019-05-19T02:28:12.186Z,13.60
2019-05-19T02:30:42.482Z,13.60
2019-05-19T02:33:12.101Z,13.60
2019-05-19T02:35:41.970Z,13.60
2019-05-19T02:38:11.631Z,13.60
2019-05-19T02:40:43.645Z,13.60
2019-05-19T02:43:15.199Z,13.50
2019-05-19T02:45:45.822Z,13.50
2019-05-19T02:48:15.827Z,13.60
2019-05-19T02:50:52.249Z,13.60
2019-05-19T02:53:20.302Z,13.60
2019-05-19T02:55:50.909Z,13.60
2019-05-19T02:58:21.008Z,13.60
2019-05-19T03:00:50.560Z,13.60
2019-05-19T03:03:20.223Z,13.60
2019-05-19T03:05:50.261Z,13.60
2019-05-19T03:08:19.822Z,13.50
2019-05-19T03:10:49.678Z,13.50
2019-05-19T03:13:19.256Z,13.50
2019-05-19T03:15:48.837Z,13.50
2019-05-19T03:18:18.577Z,13.40
2019-05-19T03:20:48.109Z,13.30
2019-05-19T03:23:17.653Z,13.40
2019-05-19T03:25:47.540Z,13.40
2019-05-19T03:28:17.155Z,13.40
2019-05-19T03:31:18.080Z,13.40
2019-05-19T03:33:49.013Z,13.40
2019-05-19T03:36:18.565Z,13.40
2019-05-19T03:38:48.228Z,13.40
2019-05-19T03:41:17.780Z,13.40
2019-05-19T03:43:47.632Z,13.40
2019-05-19T03:46:17.227Z,13.30
2019-05-19T03:48:46.780Z,13.30
2019-05-19T03:51:29.997Z,13.30
2019-05-19T03:53:47.897Z,13.20
2019-05-19T03:56:17.452Z,13.20
2019-05-19T03:58:47.008Z,13.10
2019-05-19T04:01:16.641Z,13.20
2019-05-19T04:03:46.205Z,13.30
2019-05-19T04:06:15.840Z,13.30
2019-05-19T04:08:45.524Z,13.40
2019-05-19T04:11:15.054Z,13.40
2019-05-19T04:13:44.601Z,13.40
2019-05-19T04:16:14.192Z,13.40
2019-05-19T04:18:43.733Z,13.50
2019-05-19T04:21:13.598Z,13.50
2019-05-19T04:23:43.146Z,13.60
2019-05-19T04:26:12.677Z,13.60
2019-05-19T04:28:42.298Z,13.60
2019-05-19T04:31:11.863Z,13.60
2019-05-19T04:33:41.429Z,13.50
2019-05-19T04:36:10.995Z,13.50
2019-05-19T04:38:40.817Z,13.60
2019-05-19T04:41:10.382Z,13.70
2019-05-19T04:43:39.938Z,13.70
2019-05-19T04:46:09.829Z,13.80
2019-05-19T04:48:39.386Z,13.80
2019-05-19T04:51:08.960Z,13.90
2019-05-19T04:53:38.511Z,13.90
2019-05-19T04:56:08.461Z,14.00
2019-05-19T04:58:38.016Z,14.00
2019-05-19T05:01:07.565Z,14.00
2019-05-19T05:03:37.389Z,14.00
2019-05-19T05:06:06.946Z,14.10
2019-05-19T05:08:36.494Z,14.20
2019-05-19T05:11:06.064Z,14.20
2019-05-19T05:13:36.146Z,14.20
2019-05-19T05:16:05.713Z,14.20
2019-05-19T05:18:35.303Z,14.20
2019-05-19T05:21:05.041Z,14.20
2019-05-19T05:23:34.949Z,14.20
2019-05-19T05:26:04.492Z,14.30
2019-05-19T05:28:34.055Z,14.30
2019-05-19T05:31:03.943Z,14.40
2019-05-19T05:33:33.580Z,14.40
2019-05-19T05:36:03.220Z,14.40
2019-05-19T05:38:33.405Z,14.30
2019-05-19T05:41:02.977Z,14.20
2019-05-19T05:43:32.533Z,14.30
2019-05-19T05:46:02.738Z,14.30
2019-05-19T05:48:32.293Z,14.30
2019-05-19T05:51:01.848Z,14.40
2019-05-19T05:53:31.777Z,14.40
2019-05-19T05:56:01.568Z,14.50
2019-05-19T05:58:31.138Z,14.50
2019-05-19T06:01:00.957Z,14.50
2019-05-19T06:03:30.502Z,14.60
2019-05-19T06:06:00.135Z,14.60
2019-05-19T06:08:30.041Z,14.80
2019-05-19T06:10:59.670Z,14.90
2019-05-19T06:13:29.209Z,15.10
2019-05-19T06:15:59.545Z,15.10
2019-05-19T06:18:29.165Z,15.30
2019-05-19T06:20:58.965Z,15.40
2019-05-19T06:23:28.604Z,15.40
2019-05-19T06:25:58.518Z,15.40
2019-05-19T06:28:28.061Z,15.50
2019-05-19T06:30:57.625Z,15.60
2019-05-19T06:33:27.172Z,15.60
2019-05-19T06:35:56.788Z,15.70
2019-05-19T06:38:26.369Z,15.80
2019-05-19T06:40:55.940Z,15.80
2019-05-19T06:43:25.721Z,15.90
2019-05-19T06:45:55.543Z,15.90
2019-05-19T06:48:25.222Z,16.00
2019-05-19T06:50:55.167Z,16.00
2019-05-19T06:53:26.056Z,16.10
2019-05-19T06:55:55.924Z,16.20
2019-05-19T06:58:25.884Z,16.20
2019-05-19T07:00:58.643Z,16.20
2019-05-19T07:03:26.761Z,16.40
2019-05-19T07:05:56.338Z,16.50
2019-05-19T07:08:25.984Z,16.60
2019-05-19T07:10:55.916Z,16.70
2019-05-19T07:13:25.496Z,16.80
2019-05-19T07:15:55.085Z,16.90
2019-05-19T07:18:24.719Z,17.00
2019-05-19T07:20:54.265Z,17.10
2019-05-19T07:23:28.117Z,17.20
2019-05-19T07:25:55.216Z,17.30
2019-05-19T07:28:24.781Z,17.40
2019-05-19T07:30:54.332Z,17.40
2019-05-19T07:33:23.876Z,17.40
2019-05-19T07:35:54.048Z,17.50
2019-05-19T07:38:25.779Z,17.50
2019-05-19T07:40:55.407Z,17.50
2019-05-19T07:43:25.048Z,17.60
2019-05-19T07:45:54.700Z,17.60
2019-05-19T07:48:24.612Z,17.70
2019-05-19T07:50:54.148Z,17.70
2019-05-19T07:53:23.692Z,17.70
2019-05-19T07:55:53.340Z,17.60
2019-05-19T07:58:22.892Z,17.60
2019-05-19T08:00:52.853Z,17.70
2019-05-19T08:03:22.412Z,17.70
2019-05-19T08:05:51.961Z,17.50
2019-05-19T08:08:21.824Z,17.70
2019-05-19T08:10:51.780Z,17.70
2019-05-19T08:13:21.324Z,17.80
2019-05-19T08:15:50.876Z,17.80
2019-05-19T08:18:20.622Z,17.90
2019-05-19T08:20:50.417Z,18.00
2019-05-19T08:23:20.433Z,18.10
2019-05-19T08:25:49.990Z,18.20
2019-05-19T08:28:19.644Z,18.30
2019-05-19T08:30:49.277Z,18.30
2019-05-19T08:33:19.298Z,18.40
2019-05-19T08:35:48.852Z,18.50
2019-05-19T08:38:18.624Z,18.50
2019-05-19T08:40:48.529Z,18.60
2019-05-19T08:43:18.114Z,18.70
2019-05-19T08:45:47.961Z,18.80
2019-05-19T08:48:17.817Z,18.90
2019-05-19T08:50:47.765Z,18.90
2019-05-19T08:53:17.987Z,18.90
2019-05-19T08:55:47.677Z,19.00
2019-05-19T08:58:17.993Z,19.00
2019-05-19T09:00:48.005Z,19.10
2019-05-19T09:03:17.786Z,19.10
2019-05-19T09:05:48.048Z,19.10
2019-05-19T09:08:18.533Z,19.10
2019-05-19T09:10:48.789Z,19.20
2019-05-19T09:13:18.913Z,19.20
2019-05-19T09:15:48.813Z,19.30
2019-05-19T09:18:18.373Z,19.30
2019-05-19T09:20:47.945Z,19.40
2019-05-19T09:23:17.592Z,19.40
2019-05-19T09:25:47.850Z,19.40
2019-05-19T09:28:17.399Z,19.40
2019-05-19T09:30:46.969Z,19.40
2019-05-19T09:33:16.514Z,19.40
2019-05-19T09:35:46.380Z,19.50
2019-05-19T09:38:24.101Z,19.50
2019-05-19T09:40:53.704Z,19.50
2019-05-19T09:43:23.704Z,19.60
2019-05-19T09:45:53.264Z,19.60
2019-05-19T09:48:22.855Z,19.60
2019-05-19T09:50:52.401Z,19.70
2019-05-19T09:53:21.975Z,19.70
2019-05-19T09:55:51.737Z,19.80
2019-05-19T09:58:21.754Z,19.80
2019-05-19T10:00:51.581Z,19.90
2019-05-19T10:03:21.132Z,20.00
2019-05-19T10:05:51.092Z,20.00
2019-05-19T10:08:24.751Z,20.00
2019-05-19T10:11:20.645Z,20.00
2019-05-19T10:13:50.637Z,20.10
2019-05-19T10:16:22.438Z,20.20
2019-05-19T10:18:54.320Z,20.20
2019-05-19T10:21:23.900Z,20.20
2019-05-19T10:23:53.441Z,20.30
2019-05-19T10:26:22.991Z,20.30
2019-05-19T10:28:52.562Z,20.30
2019-05-19T10:31:22.108Z,20.30
2019-05-19T10:33:51.661Z,20.30
2019-05-19T10:36:21.525Z,20.40
2019-05-19T10:38:51.081Z,20.40
2019-05-19T10:41:20.998Z,20.50
2019-05-19T10:44:00.868Z,20.60
2019-05-19T10:46:31.740Z,20.70
2019-05-19T10:49:01.695Z,20.80
2019-05-19T10:51:31.253Z,20.90
2019-05-19T10:54:00.840Z,21.00
2019-05-19T10:56:30.665Z,21.10
2019-05-19T10:59:00.229Z,21.20
2019-05-19T11:01:29.867Z,21.20
2019-05-19T11:03:59.439Z,21.20
2019-05-19T11:06:29.068Z,21.30
2019-05-19T11:08:58.675Z,21.30
2019-05-19T11:11:28.449Z,21.40
2019-05-19T11:13:58.298Z,21.40
2019-05-19T11:16:27.860Z,21.40
2019-05-19T11:19:00.862Z,21.40
2019-05-19T11:21:32.930Z,21.50
2019-05-19T11:24:02.834Z,21.70
2019-05-19T11:26:32.380Z,21.80
2019-05-19T11:29:02.208Z,21.90
2019-05-19T11:31:31.844Z,21.90
2019-05-19T11:34:01.985Z,22.00
2019-05-19T11:36:31.571Z,22.00
2019-05-19T11:39:01.841Z,22.10
2019-05-19T11:41:31.713Z,22.10
2019-05-19T11:44:01.561Z,22.10
2019-05-19T11:46:31.121Z,22.10
2019-05-19T11:49:00.756Z,22.00
2019-05-19T11:51:30.621Z,22.10
2019-05-19T11:54:00.565Z,22.20
2019-05-19T11:56:30.205Z,22.30
2019-05-19T11:58:59.810Z,22.40
2019-05-19T12:01:29.690Z,22.40
2019-05-19T12:04:00.360Z,22.50
2019-05-19T12:06:38.605Z,22.40
2019-05-19T12:09:01.472Z,22.50
2019-05-19T12:11:31.052Z,22.60
2019-05-19T12:14:00.669Z,22.90
2019-05-19T12:16:30.244Z,23.00
2019-05-19T12:18:59.844Z,23.00
2019-05-19T12:21:29.713Z,23.00
2019-05-19T12:23:59.280Z,22.80
2019-05-19T12:26:29.511Z,22.80
2019-05-19T12:28:59.350Z,22.90
2019-05-19T12:31:29.165Z,22.90
2019-05-19T12:33:59.085Z,22.90
2019-05-19T12:36:28.901Z,22.80
2019-05-19T12:38:59.020Z,22.70
2019-05-19T12:41:28.617Z,22.70
2019-05-19T12:43:59.142Z,22.90
2019-05-19T12:46:28.772Z,23.10
2019-05-19T12:48:58.354Z,23.30
2019-05-19T12:51:28.139Z,23.60
2019-05-19T12:53:57.973Z,23.80
2019-05-19T12:56:39.152Z,23.90
2019-05-19T12:58:59.112Z,23.80
2019-05-19T13:01:28.988Z,23.70
2019-05-19T13:03:58.857Z,23.70
2019-05-19T13:06:28.573Z,23.60
2019-05-19T13:08:59.376Z,23.70
2019-05-19T13:11:29.318Z,23.90
2019-05-19T13:13:58.981Z,24.20
2019-05-19T13:16:28.591Z,24.20
2019-05-19T13:18:58.411Z,24.10
2019-05-19T13:21:29.979Z,24.10
2019-05-19T13:23:59.914Z,24.00
2019-05-19T13:26:30.001Z,24.10
2019-05-19T13:28:59.689Z,24.20
2019-05-19T13:31:29.253Z,24.40
2019-05-19T13:33:59.051Z,24.40
2019-05-19T13:36:28.680Z,24.40
2019-05-19T13:38:58.332Z,24.30
2019-05-19T13:41:29.598Z,24.10
2019-05-19T13:43:59.793Z,24.10
2019-05-19T13:46:30.118Z,24.00
2019-05-19T13:49:02.828Z,23.80
2019-05-19T13:51:32.522Z,23.80
2019-05-19T13:54:02.588Z,23.70
2019-05-19T13:56:32.292Z,23.70
2019-05-19T13:59:02.323Z,23.70
2019-05-19T14:01:35.138Z,23.80
2019-05-19T14:04:05.188Z,23.90
2019-05-19T14:06:34.832Z,24.00
2019-05-19T14:09:06.316Z,24.00
2019-05-19T14:11:35.925Z,24.00
2019-05-19T14:14:05.653Z,23.90
2019-05-19T14:16:35.232Z,23.80
2019-05-19T14:19:05.284Z,23.70
2019-05-19T14:21:35.125Z,23.50
2019-05-19T14:24:04.753Z,23.40
2019-05-19T14:26:34.312Z,23.30
2019-05-19T14:29:03.946Z,23.10
2019-05-19T14:31:33.521Z,23.00
2019-05-19T14:34:03.305Z,22.80
2019-05-19T14:36:34.961Z,22.70
2019-05-19T14:39:06.262Z,22.50
2019-05-19T14:41:43.506Z,22.40
2019-05-19T14:44:13.084Z,22.20
2019-05-19T14:46:43.047Z,22.10
2019-05-19T14:49:12.722Z,21.90
2019-05-19T14:51:42.348Z,21.80
2019-05-19T14:54:11.900Z,21.70
2019-05-19T14:56:41.457Z,21.60
2019-05-19T14:59:11.380Z,21.60
2019-05-19T15:01:40.933Z,21.40
2019-05-19T15:04:10.777Z,21.40
2019-05-19T15:06:40.678Z,21.30
2019-05-19T15:09:10.612Z,21.20
2019-05-19T15:11:40.636Z,21.20
2019-05-19T15:14:10.307Z,21.10
2019-05-19T15:16:40.558Z,21.10
2019-05-19T15:19:10.126Z,21.10
2019-05-19T15:21:41.627Z,21.00
2019-05-19T15:24:11.729Z,20.90
2019-05-19T15:26:41.324Z,20.80
2019-05-19T15:29:10.898Z,20.70
2019-05-19T15:31:40.776Z,20.70
2019-05-19T15:34:11.181Z,20.70
2019-05-19T15:36:41.108Z,20.70
2019-05-19T15:39:14.016Z,20.60
2019-05-19T15:41:42.380Z,20.40
2019-05-19T15:44:11.952Z,20.20
2019-05-19T15:46:42.115Z,20.10
2019-05-19T15:49:12.245Z,20.10
2019-05-19T15:51:58.923Z,20.10
2019-05-19T15:54:13.771Z,20.00
2019-05-19T15:56:43.388Z,20.00
2019-05-19T15:59:12.980Z,19.90
2019-05-19T16:01:42.570Z,19.60
2019-05-19T16:04:12.493Z,19.40
2019-05-19T16:06:42.409Z,19.30
2019-05-19T16:09:12.124Z,19.20
2019-05-19T16:11:41.800Z,19.10
2019-05-19T16:14:11.837Z,19.00
2019-05-19T16:16:41.399Z,18.90
2019-05-19T16:19:11.273Z,18.80
2019-05-19T16:21:40.846Z,18.70
2019-05-19T16:24:10.467Z,18.70
2019-05-19T16:26:40.298Z,18.60
2019-05-19T16:29:10.303Z,18.60
2019-05-19T16:31:39.852Z,18.60
2019-05-19T16:34:09.447Z,18.60
2019-05-19T16:36:39.008Z,18.50
2019-05-19T16:39:09.049Z,18.50
2019-05-19T16:41:38.595Z,18.50
2019-05-19T16:44:08.156Z,18.60
2019-05-19T16:46:37.748Z,18.60
2019-05-19T16:49:07.745Z,18.60
2019-05-19T16:51:37.313Z,18.60
2019-05-19T16:54:11.245Z,18.50
2019-05-19T16:56:40.877Z,18.60
2019-05-19T16:59:10.801Z,18.50
2019-05-19T17:01:42.445Z,18.50
2019-05-19T17:04:12.193Z,18.50
2019-05-19T17:06:42.908Z,18.40
2019-05-19T17:09:15.042Z,18.40
2019-05-19T17:11:45.516Z,18.50
2019-05-19T17:14:15.288Z,18.60
2019-05-19T17:16:54.171Z,18.70
2019-05-19T17:19:24.062Z,18.90
2019-05-19T17:21:55.057Z,19.10
2019-05-19T17:24:25.466Z,19.20
2019-05-19T17:26:55.322Z,19.30
2019-05-19T17:29:25.356Z,19.40
2019-05-19T17:32:05.561Z,19.50
2019-05-19T17:34:26.176Z,19.60
2019-05-19T17:36:55.729Z,19.50
2019-05-19T17:39:25.699Z,19.50
2019-05-19T17:41:55.556Z,19.30
2019-05-19T17:44:25.836Z,19.10
2019-05-19T17:46:55.483Z,18.90
2019-05-19T17:49:25.449Z,18.80
2019-05-19T17:51:56.122Z,18.70
2019-05-19T17:54:26.084Z,18.60
2019-05-19T17:56:57.720Z,18.50
2019-05-19T17:59:27.972Z,18.40
2019-05-19T18:01:57.568Z,18.40
2019-05-19T18:04:27.669Z,18.40
2019-05-19T18:06:57.277Z,18.30
2019-05-19T18:09:27.113Z,18.30
2019-05-19T18:11:57.013Z,18.30
2019-05-19T18:14:27.591Z,18.30
2019-05-19T18:16:57.872Z,18.20
2019-05-19T18:19:28.115Z,18.20
2019-05-19T18:21:58.452Z,18.20
2019-05-19T18:24:28.250Z,18.10
2019-05-19T18:26:58.090Z,18.10
2019-05-19T18:29:31.226Z,18.00
2019-05-19T18:31:58.957Z,18.00
2019-05-19T18:34:28.743Z,18.00
2019-05-19T18:36:58.364Z,18.00
2019-05-19T18:39:28.017Z,18.40
2019-05-19T18:41:58.070Z,19.00
2019-05-19T18:44:28.045Z,19.50
2019-05-19T18:46:58.061Z,19.80
2019-05-19T18:49:28.221Z,20.00
2019-05-19T18:51:58.008Z,20.20
2019-05-19T18:54:28.118Z,20.40
2019-05-19T18:56:58.045Z,20.20
2019-05-19T18:59:27.625Z,19.80
2019-05-19T19:01:57.344Z,19.30
2019-05-19T19:04:26.942Z,18.80
2019-05-19T19:06:56.496Z,18.50
2019-05-19T19:09:27.267Z,18.10
2019-05-19T19:12:07.173Z,17.80
2019-05-19T19:14:37.046Z,17.60
2019-05-19T19:17:07.260Z,17.40
2019-05-19T19:19:36.834Z,17.30
2019-05-19T19:22:06.660Z,17.20
2019-05-19T19:24:38.539Z,17.10
2019-05-19T19:27:07.769Z,17.00
2019-05-19T19:29:37.314Z,16.90
2019-05-19T19:32:06.980Z,16.80
2019-05-19T19:34:36.613Z,16.70
2019-05-19T19:37:06.171Z,16.60
2019-05-19T19:39:38.165Z,16.60
2019-05-19T19:42:07.739Z,16.50
2019-05-19T19:44:37.957Z,16.50
2019-05-19T19:47:15.377Z,16.30
2019-05-19T19:49:45.238Z,16.30
2019-05-19T19:52:14.819Z,16.20
2019-05-19T19:54:53.697Z,16.20
2019-05-19T19:57:23.261Z,16.20
2019-05-19T19:59:53.037Z,16.10
2019-05-19T20:02:22.672Z,16.00
2019-05-19T20:04:52.274Z,16.00
2019-05-19T20:07:21.825Z,15.90
2019-05-19T20:09:51.393Z,15.90
2019-05-19T20:12:21.013Z,15.90
2019-05-19T20:14:50.841Z,15.80
2019-05-19T20:17:20.394Z,15.80
2019-05-19T20:19:50.029Z,15.70
2019-05-19T20:22:19.582Z,15.70
2019-05-19T20:24:49.207Z,15.70
2019-05-19T20:27:19.073Z,15.60
2019-05-19T20:29:49.101Z,15.60
2019-05-19T20:32:19.317Z,15.50
2019-05-19T20:34:49.229Z,15.50
2019-05-19T20:37:18.905Z,15.40
2019-05-19T20:39:48.453Z,15.30
2019-05-19T20:42:18.016Z,15.20
2019-05-19T20:44:47.585Z,15.10
2019-05-19T20:47:17.212Z,15.10
2019-05-19T20:49:47.074Z,15.00
2019-05-19T20:52:16.986Z,15.00
2019-05-19T20:54:46.544Z,14.90
2019-05-19T20:57:16.106Z,14.90
2019-05-19T20:59:46.208Z,14.90
2019-05-19T21:02:15.788Z,14.90
2019-05-19T21:04:48.849Z,14.90
2019-05-19T21:07:19.026Z,14.90
2019-05-19T21:09:52.595Z,14.90
2019-05-19T21:12:22.149Z,14.80
2019-05-19T21:14:51.724Z,14.80
2019-05-19T21:17:32.495Z,14.80
2019-05-19T21:20:02.844Z,14.70
2019-05-19T21:22:32.949Z,14.70
2019-05-19T21:25:02.573Z,14.50
2019-05-19T21:27:32.393Z,14.40
2019-05-19T21:30:14.864Z,14.40
2019-05-19T21:32:44.773Z,14.30
2019-05-19T21:35:14.464Z,14.30
2019-05-19T21:37:44.044Z,14.30
2019-05-19T21:40:13.866Z,14.30
2019-05-19T21:42:43.772Z,14.20
2019-05-19T21:45:13.841Z,14.20
2019-05-19T21:47:43.760Z,14.20
2019-05-19T21:50:13.690Z,14.20
2019-05-19T21:52:43.793Z,14.20
2019-05-19T21:55:14.032Z,14.10
2019-05-19T21:57:43.962Z,14.10
2019-05-19T22:00:15.617Z,14.10
2019-05-19T22:02:45.692Z,14.10
2019-05-19T22:05:16.566Z,14.10
2019-05-19T22:08:11.524Z,14.10
2019-05-19T22:10:41.212Z,14.10
2019-05-19T22:13:10.761Z,14.10
2019-05-19T22:15:40.661Z,14.00
2019-05-19T22:18:10.300Z,14.00
2019-05-19T22:20:40.220Z,14.00
2019-05-19T22:23:10.100Z,13.90
2019-05-19T22:25:39.729Z,13.70
2019-05-19T22:28:09.740Z,13.60
2019-05-19T22:30:39.418Z,13.50
2019-05-19T22:33:09.052Z,13.50
2019-05-19T22:35:39.255Z,13.40
2019-05-19T22:38:09.579Z,13.50
2019-05-19T22:40:39.617Z,13.40
2019-05-19T22:43:09.193Z,13.40
2019-05-19T22:45:38.796Z,13.50
2019-05-19T22:48:08.350Z,13.40
2019-05-19T22:50:37.930Z,13.40
2019-05-19T22:53:11.608Z,13.50
2019-05-19T22:55:41.156Z,13.40
2019-05-19T22:58:10.859Z,13.40
2019-05-19T23:00:40.737Z,13.40
2019-05-19T23:03:10.624Z,13.40
2019-05-19T23:05:40.200Z,13.40
2019-05-19T23:08:10.057Z,13.40
2019-05-19T23:10:40.034Z,13.40
2019-05-19T23:13:09.727Z,13.40
2019-05-19T23:15:39.397Z,13.40
2019-05-19T23:18:09.144Z,13.40
2019-05-19T23:20:39.736Z,13.40
2019-05-19T23:23:09.334Z,13.40
2019-05-19T23:25:39.534Z,13.40
2019-05-19T23:28:09.093Z,13.40
2019-05-19T23:30:38.985Z,13.40
2019-05-19T23:33:09.299Z,13.40
2019-05-19T23:35:38.873Z,13.40
2019-05-19T23:38:08.444Z,13.40
2019-05-19T23:40:38.408Z,13.40
2019-05-19T23:43:07.977Z,13.40
2019-05-19T23:45:37.523Z,13.40
2019-05-19T23:48:07.112Z,13.40
2019-05-19T23:50:36.669Z,13.40
2019-05-19T23:53:06.220Z,13.40
2019-05-19T23:55:35.762Z,13.40
2019-05-19T23:58:05.335Z,13.50
